sensor_id;sensor_type;location;lat;lon;timestamp;P1;P2;P0
49656;PMS5003;71194;38.900;-77.124;2023-07-20T00:00:16;29;24;
49656;PMS5003;71194;38.900;-77.124;2023-07-20T00:02:45;22;22;
49656;PMS5003;71194;38.900;-77.124;2023-07-20T00:05:16;18;17;
49656;PMS5003;71194;38.900;-77.124;2023-07-20T00:07:44;18;18;
49656;PMS5003;71194;38.900;-77.124;2023-07-20T00:10:12;14;13;
49656;PMS5003;71194;38.900;-77.124;2023-07-20T00:12:40;15;14;
49656;PMS5003;71194;38.900;-77.124;2023-07-20T00:15:08;19;14;
49656;PMS5003;71194;38.900;-77.124;2023-07-20T00:17:36;13;13;
49656;PMS5003;71194;38.900;-77.124;2023-07-20T00:20:04;14;12;
49656;PMS5003;71194;38.900;-77.124;2023-07-20T00:22:33;14;11;
49656;PMS5003;71194;38.900;-77.124;2023-07-20T00:25:00;16;12;
49656;PMS5003;71194;38.900;-77.124;2023-07-20T00:27:28;20;15;
49656;PMS5003;71194;38.900;-77.124;2023-07-20T00:29:56;17;16;
49656;PMS5003;71194;38.900;-77.124;2023-07-20T00:32:23;20;16;
49656;PMS5003;71194;38.900;-77.124;2023-07-20T00:34:51;16;15;
49656;PMS5003;71194;38.900;-77.124;2023-07-20T00:37:19;14;13;
49656;PMS5003;71194;38.900;-77.124;2023-07-20T00:39:47;13;12;
49656;PMS5003;71194;38.900;-77.124;2023-07-20T00:42:14;12;12;
49656;PMS5003;71194;38.900;-77.124;2023-07-20T00:44:42;10;10;
49656;PMS5003;71194;38.900;-77.124;2023-07-20T00:47:09;15;13;
49656;PMS5003;71194;38.900;-77.124;2023-07-20T00:49:37;17;16;
49656;PMS5003;71194;38.900;-77.124;2023-07-20T00:52:06;23;19;
49656;PMS5003;71194;38.900;-77.124;2023-07-20T00:54:37;26;24;
49656;PMS5003;71194;38.900;-77.124;2023-07-20T00:57:04;25;21;
49656;PMS5003;71194;38.900;-77.124;2023-07-20T00:59:34;23;22;
49656;PMS5003;71194;38.900;-77.124;2023-07-20T01:02:02;19;16;
49656;PMS5003;71194;38.900;-77.124;2023-07-20T01:04:30;19;15;
49656;PMS5003;71194;38.900;-77.124;2023-07-20T01:07:00;12;11;
49656;PMS5003;71194;38.900;-77.124;2023-07-20T01:09:39;19;16;
49656;PMS5003;71194;38.900;-77.124;2023-07-20T01:12:13;16;15;
49656;PMS5003;71194;38.900;-77.124;2023-07-20T01:14:46;23;19;
49656;PMS5003;71194;38.900;-77.124;2023-07-20T01:17:15;16;15;
49656;PMS5003;71194;38.900;-77.124;2023-07-20T01:19:43;18;15;
49656;PMS5003;71194;38.900;-77.124;2023-07-20T01:22:14;19;14;
49656;PMS5003;71194;38.900;-77.124;2023-07-20T01:25:03;21;14;
49656;PMS5003;71194;38.900;-77.124;2023-07-20T01:27:51;19;15;
49656;PMS5003;71194;38.900;-77.124;2023-07-20T01:30:38;18;14;
49656;PMS5003;71194;38.900;-77.124;2023-07-20T01:33:12;24;20;
49656;PMS5003;71194;38.900;-77.124;2023-07-20T01:35:42;19;17;
49656;PMS5003;71194;38.900;-77.124;2023-07-20T01:38:12;20;17;
49656;PMS5003;71194;38.900;-77.124;2023-07-20T01:40:40;20;17;
49656;PMS5003;71194;38.900;-77.124;2023-07-20T01:43:09;21;17;
49656;PMS5003;71194;38.900;-77.124;2023-07-20T01:45:38;22;16;
49656;PMS5003;71194;38.900;-77.124;2023-07-20T01:48:05;34;22;
49656;PMS5003;71194;38.900;-77.124;2023-07-20T01:50:33;26;24;
49656;PMS5003;71194;38.900;-77.124;2023-07-20T01:53:00;19;17;
49656;PMS5003;71194;38.900;-77.124;2023-07-20T01:55:28;20;19;
49656;PMS5003;71194;38.900;-77.124;2023-07-20T01:57:56;16;15;
49656;PMS5003;71194;38.900;-77.124;2023-07-20T02:00:24;18;14;
49656;PMS5003;71194;38.900;-77.124;2023-07-20T02:02:52;17;14;
49656;PMS5003;71194;38.900;-77.124;2023-07-20T02:05:19;18;14;
49656;PMS5003;71194;38.900;-77.124;2023-07-20T02:07:47;12;11;
49656;PMS5003;71194;38.900;-77.124;2023-07-20T02:10:14;15;13;
49656;PMS5003;71194;38.900;-77.124;2023-07-20T02:12:42;12;10;
49656;PMS5003;71194;38.900;-77.124;2023-07-20T02:15:10;10;9;
49656;PMS5003;71194;38.900;-77.124;2023-07-20T02:17:39;12;10;
49656;PMS5003;71194;38.900;-77.124;2023-07-20T02:20:07;12;10;
49656;PMS5003;71194;38.900;-77.124;2023-07-20T02:22:36;10;7;
49656;PMS5003;71194;38.900;-77.124;2023-07-20T02:25:04;8;7;
49656;PMS5003;71194;38.900;-77.124;2023-07-20T02:27:32;11;9;
49656;PMS5003;71194;38.900;-77.124;2023-07-20T02:30:00;8;7;
49656;PMS5003;71194;38.900;-77.124;2023-07-20T02:32:28;14;9;
49656;PMS5003;71194;38.900;-77.124;2023-07-20T02:34:57;15;12;
49656;PMS5003;71194;38.900;-77.124;2023-07-20T02:37:25;15;13;
49656;PMS5003;71194;38.900;-77.124;2023-07-20T02:39:53;17;14;
49656;PMS5003;71194;38.900;-77.124;2023-07-20T02:42:20;15;12;
49656;PMS5003;71194;38.900;-77.124;2023-07-20T02:44:48;13;12;
49656;PMS5003;71194;38.900;-77.124;2023-07-20T02:47:16;14;13;
49656;PMS5003;71194;38.900;-77.124;2023-07-20T02:49:44;15;9;
49656;PMS5003;71194;38.900;-77.124;2023-07-20T02:52:11;13;11;
49656;PMS5003;71194;38.900;-77.124;2023-07-20T02:54:39;14;10;
49656;PMS5003;71194;38.900;-77.124;2023-07-20T02:57:07;24;19;
49656;PMS5003;71194;38.900;-77.124;2023-07-20T02:59:34;15;14;
49656;PMS5003;71194;38.900;-77.124;2023-07-20T03:02:02;13;9;
49656;PMS5003;71194;38.900;-77.124;2023-07-20T03:04:30;15;12;
49656;PMS5003;71194;38.900;-77.124;2023-07-20T03:06:58;14;11;
49656;PMS5003;71194;38.900;-77.124;2023-07-20T03:09:25;16;16;
49656;PMS5003;71194;38.900;-77.124;2023-07-20T03:11:53;14;12;
49656;PMS5003;71194;38.900;-77.124;2023-07-20T03:14:21;10;10;
49656;PMS5003;71194;38.900;-77.124;2023-07-20T03:16:48;23;21;
49656;PMS5003;71194;38.900;-77.124;2023-07-20T03:19:16;22;18;
49656;PMS5003;71194;38.900;-77.124;2023-07-20T03:21:43;17;12;
49656;PMS5003;71194;38.900;-77.124;2023-07-20T03:24:11;15;14;
49656;PMS5003;71194;38.900;-77.124;2023-07-20T03:26:39;10;10;
49656;PMS5003;71194;38.900;-77.124;2023-07-20T03:29:07;15;14;
49656;PMS5003;71194;38.900;-77.124;2023-07-20T03:31:35;12;11;
49656;PMS5003;71194;38.900;-77.124;2023-07-20T03:34:03;10;10;
49656;PMS5003;71194;38.900;-77.124;2023-07-20T03:36:30;12;10;
49656;PMS5003;71194;38.900;-77.124;2023-07-20T03:38:58;9;8;
49656;PMS5003;71194;38.900;-77.124;2023-07-20T03:41:26;16;11;
49656;PMS5003;71194;38.900;-77.124;2023-07-20T03:43:54;18;15;
49656;PMS5003;71194;38.900;-77.124;2023-07-20T03:46:22;16;16;
49656;PMS5003;71194;38.900;-77.124;2023-07-20T03:48:50;18;16;
49656;PMS5003;71194;38.900;-77.124;2023-07-20T03:51:17;20;16;
49656;PMS5003;71194;38.900;-77.124;2023-07-20T03:53:45;15;15;
49656;PMS5003;71194;38.900;-77.124;2023-07-20T03:56:12;16;12;
49656;PMS5003;71194;38.900;-77.124;2023-07-20T03:58:40;16;12;
49656;PMS5003;71194;38.900;-77.124;2023-07-20T04:01:07;16;11;
49656;PMS5003;71194;38.900;-77.124;2023-07-20T04:03:35;19;16;
49656;PMS5003;71194;38.900;-77.124;2023-07-20T04:06:03;21;19;
49656;PMS5003;71194;38.900;-77.124;2023-07-20T04:08:30;23;16;
49656;PMS5003;71194;38.900;-77.124;2023-07-20T04:11:01;24;20;
49656;PMS5003;71194;38.900;-77.124;2023-07-20T04:13:29;19;18;
49656;PMS5003;71194;38.900;-77.124;2023-07-20T04:15:57;23;22;
49656;PMS5003;71194;38.900;-77.124;2023-07-20T04:18:25;20;17;
49656;PMS5003;71194;38.900;-77.124;2023-07-20T04:20:52;17;17;
49656;PMS5003;71194;38.900;-77.124;2023-07-20T04:23:20;18;14;
49656;PMS5003;71194;38.900;-77.124;2023-07-20T04:25:47;14;12;
49656;PMS5003;71194;38.900;-77.124;2023-07-20T04:28:15;14;11;
49656;PMS5003;71194;38.900;-77.124;2023-07-20T04:30:42;15;11;
49656;PMS5003;71194;38.900;-77.124;2023-07-20T04:33:10;19;13;
49656;PMS5003;71194;38.900;-77.124;2023-07-20T04:35:47;15;12;
49656;PMS5003;71194;38.900;-77.124;2023-07-20T04:38:17;15;14;
49656;PMS5003;71194;38.900;-77.124;2023-07-20T04:40:45;17;14;
49656;PMS5003;71194;38.900;-77.124;2023-07-20T04:43:14;15;11;
49656;PMS5003;71194;38.900;-77.124;2023-07-20T04:45:43;19;14;
49656;PMS5003;71194;38.900;-77.124;2023-07-20T04:48:11;14;14;
49656;PMS5003;71194;38.900;-77.124;2023-07-20T04:50:40;18;14;
49656;PMS5003;71194;38.900;-77.124;2023-07-20T04:53:09;21;17;
49656;PMS5003;71194;38.900;-77.124;2023-07-20T04:55:37;21;16;
49656;PMS5003;71194;38.900;-77.124;2023-07-20T04:58:05;23;16;
49656;PMS5003;71194;38.900;-77.124;2023-07-20T05:00:34;24;20;
49656;PMS5003;71194;38.900;-77.124;2023-07-20T05:03:02;21;20;
49656;PMS5003;71194;38.900;-77.124;2023-07-20T05:05:30;21;18;
49656;PMS5003;71194;38.900;-77.124;2023-07-20T05:07:57;20;17;
49656;PMS5003;71194;38.900;-77.124;2023-07-20T05:10:25;20;17;
49656;PMS5003;71194;38.900;-77.124;2023-07-20T05:12:53;17;15;
49656;PMS5003;71194;38.900;-77.124;2023-07-20T05:15:20;27;21;
49656;PMS5003;71194;38.900;-77.124;2023-07-20T05:17:48;17;16;
49656;PMS5003;71194;38.900;-77.124;2023-07-20T05:20:16;17;17;
49656;PMS5003;71194;38.900;-77.124;2023-07-20T05:22:44;19;17;
49656;PMS5003;71194;38.900;-77.124;2023-07-20T05:25:12;19;15;
49656;PMS5003;71194;38.900;-77.124;2023-07-20T05:27:40;14;14;
49656;PMS5003;71194;38.900;-77.124;2023-07-20T05:30:08;17;16;
49656;PMS5003;71194;38.900;-77.124;2023-07-20T05:32:36;12;10;
49656;PMS5003;71194;38.900;-77.124;2023-07-20T05:35:04;12;10;
49656;PMS5003;71194;38.900;-77.124;2023-07-20T05:37:33;18;15;
49656;PMS5003;71194;38.900;-77.124;2023-07-20T05:40:01;13;11;
49656;PMS5003;71194;38.900;-77.124;2023-07-20T05:42:29;12;11;
49656;PMS5003;71194;38.900;-77.124;2023-07-20T05:44:56;12;11;
49656;PMS5003;71194;38.900;-77.124;2023-07-20T05:47:24;12;10;
49656;PMS5003;71194;38.900;-77.124;2023-07-20T05:49:52;13;12;
49656;PMS5003;71194;38.900;-77.124;2023-07-20T05:52:20;9;9;
49656;PMS5003;71194;38.900;-77.124;2023-07-20T05:54:48;14;13;
49656;PMS5003;71194;38.900;-77.124;2023-07-20T05:57:16;13;9;
49656;PMS5003;71194;38.900;-77.124;2023-07-20T05:59:44;12;11;
49656;PMS5003;71194;38.900;-77.124;2023-07-20T06:02:12;14;14;
49656;PMS5003;71194;38.900;-77.124;2023-07-20T06:04:39;19;15;
49656;PMS5003;71194;38.900;-77.124;2023-07-20T06:07:07;17;16;
49656;PMS5003;71194;38.900;-77.124;2023-07-20T06:09:35;18;14;
49656;PMS5003;71194;38.900;-77.124;2023-07-20T06:12:03;13;12;
49656;PMS5003;71194;38.900;-77.124;2023-07-20T06:14:31;15;13;
49656;PMS5003;71194;38.900;-77.124;2023-07-20T06:16:58;17;14;
49656;PMS5003;71194;38.900;-77.124;2023-07-20T06:19:26;12;11;
49656;PMS5003;71194;38.900;-77.124;2023-07-20T06:21:54;16;16;
49656;PMS5003;71194;38.900;-77.124;2023-07-20T06:24:22;18;13;
49656;PMS5003;71194;38.900;-77.124;2023-07-20T06:26:49;17;14;
49656;PMS5003;71194;38.900;-77.124;2023-07-20T06:29:18;15;15;
49656;PMS5003;71194;38.900;-77.124;2023-07-20T06:31:45;17;15;
49656;PMS5003;71194;38.900;-77.124;2023-07-20T06:34:13;15;13;
49656;PMS5003;71194;38.900;-77.124;2023-07-20T06:36:41;21;16;
49656;PMS5003;71194;38.900;-77.124;2023-07-20T06:39:09;18;14;
49656;PMS5003;71194;38.900;-77.124;2023-07-20T06:41:37;18;11;
49656;PMS5003;71194;38.900;-77.124;2023-07-20T06:44:05;22;22;
49656;PMS5003;71194;38.900;-77.124;2023-07-20T06:46:33;29;24;
49656;PMS5003;71194;38.900;-77.124;2023-07-20T06:49:01;21;21;
49656;PMS5003;71194;38.900;-77.124;2023-07-20T06:51:28;25;24;
49656;PMS5003;71194;38.900;-77.124;2023-07-20T06:53:56;27;23;
49656;PMS5003;71194;38.900;-77.124;2023-07-20T06:56:23;19;15;
49656;PMS5003;71194;38.900;-77.124;2023-07-20T06:58:51;23;19;
49656;PMS5003;71194;38.900;-77.124;2023-07-20T07:01:19;20;17;
49656;PMS5003;71194;38.900;-77.124;2023-07-20T07:03:47;17;12;
49656;PMS5003;71194;38.900;-77.124;2023-07-20T07:06:15;17;13;
49656;PMS5003;71194;38.900;-77.124;2023-07-20T07:08:42;16;15;
49656;PMS5003;71194;38.900;-77.124;2023-07-20T07:11:09;10;9;
49656;PMS5003;71194;38.900;-77.124;2023-07-20T07:13:37;18;14;
49656;PMS5003;71194;38.900;-77.124;2023-07-20T07:16:05;12;11;
49656;PMS5003;71194;38.900;-77.124;2023-07-20T07:18:33;11;11;
49656;PMS5003;71194;38.900;-77.124;2023-07-20T07:21:00;14;13;
49656;PMS5003;71194;38.900;-77.124;2023-07-20T07:23:28;16;13;
49656;PMS5003;71194;38.900;-77.124;2023-07-20T07:25:56;15;12;
49656;PMS5003;71194;38.900;-77.124;2023-07-20T07:28:24;14;13;
49656;PMS5003;71194;38.900;-77.124;2023-07-20T07:30:52;12;11;
49656;PMS5003;71194;38.900;-77.124;2023-07-20T07:33:21;13;12;
49656;PMS5003;71194;38.900;-77.124;2023-07-20T07:35:49;11;8;
49656;PMS5003;71194;38.900;-77.124;2023-07-20T07:38:17;14;12;
49656;PMS5003;71194;38.900;-77.124;2023-07-20T07:40:46;13;12;
49656;PMS5003;71194;38.900;-77.124;2023-07-20T07:43:14;12;12;
49656;PMS5003;71194;38.900;-77.124;2023-07-20T07:45:42;13;12;
49656;PMS5003;71194;38.900;-77.124;2023-07-20T07:48:10;15;13;
49656;PMS5003;71194;38.900;-77.124;2023-07-20T07:50:38;26;18;
49656;PMS5003;71194;38.900;-77.124;2023-07-20T07:53:06;19;15;
49656;PMS5003;71194;38.900;-77.124;2023-07-20T07:55:35;19;17;
49656;PMS5003;71194;38.900;-77.124;2023-07-20T07:58:03;16;13;
49656;PMS5003;71194;38.900;-77.124;2023-07-20T08:00:30;23;16;
49656;PMS5003;71194;38.900;-77.124;2023-07-20T08:02:58;27;22;
49656;PMS5003;71194;38.900;-77.124;2023-07-20T08:05:26;27;25;
49656;PMS5003;71194;38.900;-77.124;2023-07-20T08:07:54;29;26;
49656;PMS5003;71194;38.900;-77.124;2023-07-20T08:10:22;26;24;
49656;PMS5003;71194;38.900;-77.124;2023-07-20T08:12:50;29;26;
49656;PMS5003;71194;38.900;-77.124;2023-07-20T08:15:17;20;17;
49656;PMS5003;71194;38.900;-77.124;2023-07-20T08:17:45;19;17;
49656;PMS5003;71194;38.900;-77.124;2023-07-20T08:20:13;18;18;
49656;PMS5003;71194;38.900;-77.124;2023-07-20T08:22:41;21;18;
49656;PMS5003;71194;38.900;-77.124;2023-07-20T08:25:09;16;15;
49656;PMS5003;71194;38.900;-77.124;2023-07-20T08:27:36;19;17;
49656;PMS5003;71194;38.900;-77.124;2023-07-20T08:30:05;18;15;
49656;PMS5003;71194;38.900;-77.124;2023-07-20T08:32:33;15;12;
49656;PMS5003;71194;38.900;-77.124;2023-07-20T08:35:01;16;13;
49656;PMS5003;71194;38.900;-77.124;2023-07-20T08:37:29;15;14;
49656;PMS5003;71194;38.900;-77.124;2023-07-20T08:39:56;19;16;
49656;PMS5003;71194;38.900;-77.124;2023-07-20T08:42:24;14;12;
49656;PMS5003;71194;38.900;-77.124;2023-07-20T08:44:54;11;11;
49656;PMS5003;71194;38.900;-77.124;2023-07-20T08:47:22;9;9;
49656;PMS5003;71194;38.900;-77.124;2023-07-20T08:49:52;13;13;
49656;PMS5003;71194;38.900;-77.124;2023-07-20T08:52:22;15;11;
49656;PMS5003;71194;38.900;-77.124;2023-07-20T08:54:50;16;15;
49656;PMS5003;71194;38.900;-77.124;2023-07-20T08:57:19;10;9;
49656;PMS5003;71194;38.900;-77.124;2023-07-20T08:59:49;13;11;
49656;PMS5003;71194;38.900;-77.124;2023-07-20T09:02:19;11;11;
49656;PMS5003;71194;38.900;-77.124;2023-07-20T09:04:50;16;11;
49656;PMS5003;71194;38.900;-77.124;2023-07-20T09:07:18;13;11;
49656;PMS5003;71194;38.900;-77.124;2023-07-20T09:09:46;12;9;
49656;PMS5003;71194;38.900;-77.124;2023-07-20T09:12:14;22;17;
49656;PMS5003;71194;38.900;-77.124;2023-07-20T09:14:42;23;16;
49656;PMS5003;71194;38.900;-77.124;2023-07-20T09:17:13;14;13;
49656;PMS5003;71194;38.900;-77.124;2023-07-20T09:19:45;20;18;
49656;PMS5003;71194;38.900;-77.124;2023-07-20T09:22:13;12;11;
49656;PMS5003;71194;38.900;-77.124;2023-07-20T09:24:41;18;17;
49656;PMS5003;71194;38.900;-77.124;2023-07-20T09:27:09;18;14;
49656;PMS5003;71194;38.900;-77.124;2023-07-20T09:29:47;14;10;
49656;PMS5003;71194;38.900;-77.124;2023-07-20T09:32:17;16;13;
49656;PMS5003;71194;38.900;-77.124;2023-07-20T09:34:47;17;13;
49656;PMS5003;71194;38.900;-77.124;2023-07-20T09:37:19;14;13;
49656;PMS5003;71194;38.900;-77.124;2023-07-20T09:39:47;16;13;
49656;PMS5003;71194;38.900;-77.124;2023-07-20T09:42:18;16;14;
49656;PMS5003;71194;38.900;-77.124;2023-07-20T09:44:48;18;14;
49656;PMS5003;71194;38.900;-77.124;2023-07-20T09:47:21;20;16;
49656;PMS5003;71194;38.900;-77.124;2023-07-20T09:49:50;17;16;
49656;PMS5003;71194;38.900;-77.124;2023-07-20T09:52:25;16;11;
49656;PMS5003;71194;38.900;-77.124;2023-07-20T09:54:54;20;15;
49656;PMS5003;71194;38.900;-77.124;2023-07-20T09:57:22;22;16;
49656;PMS5003;71194;38.900;-77.124;2023-07-20T09:59:52;16;16;
49656;PMS5003;71194;38.900;-77.124;2023-07-20T10:02:21;17;17;
49656;PMS5003;71194;38.900;-77.124;2023-07-20T10:04:53;21;16;
49656;PMS5003;71194;38.900;-77.124;2023-07-20T10:07:22;16;13;
49656;PMS5003;71194;38.900;-77.124;2023-07-20T10:09:53;17;12;
49656;PMS5003;71194;38.900;-77.124;2023-07-20T10:12:23;18;17;
49656;PMS5003;71194;38.900;-77.124;2023-07-20T10:14:52;13;10;
49656;PMS5003;71194;38.900;-77.124;2023-07-20T10:17:26;13;12;
49656;PMS5003;71194;38.900;-77.124;2023-07-20T10:19:55;21;17;
49656;PMS5003;71194;38.900;-77.124;2023-07-20T10:22:27;22;19;
49656;PMS5003;71194;38.900;-77.124;2023-07-20T10:25:02;24;20;
49656;PMS5003;71194;38.900;-77.124;2023-07-20T10:27:31;22;20;
49656;PMS5003;71194;38.900;-77.124;2023-07-20T10:29:58;25;17;
49656;PMS5003;71194;38.900;-77.124;2023-07-20T10:32:26;30;25;
49656;PMS5003;71194;38.900;-77.124;2023-07-20T10:34:56;24;20;
49656;PMS5003;71194;38.900;-77.124;2023-07-20T10:37:59;26;18;
49656;PMS5003;71194;38.900;-77.124;2023-07-20T10:40:30;17;15;
49656;PMS5003;71194;38.900;-77.124;2023-07-20T10:42:59;22;17;
49656;PMS5003;71194;38.900;-77.124;2023-07-20T10:45:48;14;14;
49656;PMS5003;71194;38.900;-77.124;2023-07-20T10:48:17;22;22;
49656;PMS5003;71194;38.900;-77.124;2023-07-20T10:50:48;17;17;
49656;PMS5003;71194;38.900;-77.124;2023-07-20T10:53:36;20;18;
49656;PMS5003;71194;38.900;-77.124;2023-07-20T10:56:07;30;27;
49656;PMS5003;71194;38.900;-77.124;2023-07-20T10:58:39;35;27;
49656;PMS5003;71194;38.900;-77.124;2023-07-20T11:01:07;27;24;
49656;PMS5003;71194;38.900;-77.124;2023-07-20T11:03:40;24;22;
49656;PMS5003;71194;38.900;-77.124;2023-07-20T11:06:42;32;29;
49656;PMS5003;71194;38.900;-77.124;2023-07-20T11:09:11;24;21;
49656;PMS5003;71194;38.900;-77.124;2023-07-20T11:11:41;21;17;
49656;PMS5003;71194;38.900;-77.124;2023-07-20T11:14:10;19;19;
49656;PMS5003;71194;38.900;-77.124;2023-07-20T11:16:47;19;16;
49656;PMS5003;71194;38.900;-77.124;2023-07-20T11:19:17;25;21;
49656;PMS5003;71194;38.900;-77.124;2023-07-20T11:21:47;23;19;
49656;PMS5003;71194;38.900;-77.124;2023-07-20T11:24:18;31;25;
49656;PMS5003;71194;38.900;-77.124;2023-07-20T11:26:47;21;17;
49656;PMS5003;71194;38.900;-77.124;2023-07-20T11:29:16;19;15;
49656;PMS5003;71194;38.900;-77.124;2023-07-20T11:31:45;23;17;
49656;PMS5003;71194;38.900;-77.124;2023-07-20T11:34:14;29;27;
49656;PMS5003;71194;38.900;-77.124;2023-07-20T11:36:44;22;19;
49656;PMS5003;71194;38.900;-77.124;2023-07-20T11:39:13;31;26;
49656;PMS5003;71194;38.900;-77.124;2023-07-20T11:41:44;24;23;
49656;PMS5003;71194;38.900;-77.124;2023-07-20T11:44:13;29;26;
49656;PMS5003;71194;38.900;-77.124;2023-07-20T11:46:42;24;22;
49656;PMS5003;71194;38.900;-77.124;2023-07-20T11:49:10;24;21;
49656;PMS5003;71194;38.900;-77.124;2023-07-20T11:51:39;21;21;
49656;PMS5003;71194;38.900;-77.124;2023-07-20T11:54:08;28;27;
49656;PMS5003;71194;38.900;-77.124;2023-07-20T11:56:36;23;23;
49656;PMS5003;71194;38.900;-77.124;2023-07-20T11:59:09;29;20;
49656;PMS5003;71194;38.900;-77.124;2023-07-20T12:01:36;25;22;
49656;PMS5003;71194;38.900;-77.124;2023-07-20T12:04:04;24;22;
49656;PMS5003;71194;38.900;-77.124;2023-07-20T12:06:32;34;27;
49656;PMS5003;71194;38.900;-77.124;2023-07-20T12:09:01;39;28;
49656;PMS5003;71194;38.900;-77.124;2023-07-20T12:11:32;34;31;
49656;PMS5003;71194;38.900;-77.124;2023-07-20T12:14:01;34;29;
49656;PMS5003;71194;38.900;-77.124;2023-07-20T12:16:29;28;23;
49656;PMS5003;71194;38.900;-77.124;2023-07-20T12:19:01;31;23;
49656;PMS5003;71194;38.900;-77.124;2023-07-20T12:21:30;26;23;
49656;PMS5003;71194;38.900;-77.124;2023-07-20T12:23:58;29;22;
49656;PMS5003;71194;38.900;-77.124;2023-07-20T12:26:28;25;21;
49656;PMS5003;71194;38.900;-77.124;2023-07-20T12:28:57;24;21;
49656;PMS5003;71194;38.900;-77.124;2023-07-20T12:31:26;27;20;
49656;PMS5003;71194;38.900;-77.124;2023-07-20T12:33:54;23;19;
49656;PMS5003;71194;38.900;-77.124;2023-07-20T12:36:23;24;20;
49656;PMS5003;71194;38.900;-77.124;2023-07-20T12:38:51;25;19;
49656;PMS5003;71194;38.900;-77.124;2023-07-20T12:41:19;21;18;
49656;PMS5003;71194;38.900;-77.124;2023-07-20T12:43:47;31;27;
49656;PMS5003;71194;38.900;-77.124;2023-07-20T12:46:14;25;24;
49656;PMS5003;71194;38.900;-77.124;2023-07-20T12:48:42;21;20;
49656;PMS5003;71194;38.900;-77.124;2023-07-20T12:51:11;25;21;
49656;PMS5003;71194;38.900;-77.124;2023-07-20T12:53:38;29;23;
49656;PMS5003;71194;38.900;-77.124;2023-07-20T12:56:06;25;24;
49656;PMS5003;71194;38.900;-77.124;2023-07-20T12:58:35;35;31;
49656;PMS5003;71194;38.900;-77.124;2023-07-20T13:01:02;34;27;
49656;PMS5003;71194;38.900;-77.124;2023-07-20T13:03:29;39;29;
49656;PMS5003;71194;38.900;-77.124;2023-07-20T13:05:59;27;26;
49656;PMS5003;71194;38.900;-77.124;2023-07-20T13:08:27;33;26;
49656;PMS5003;71194;38.900;-77.124;2023-07-20T13:10:55;31;24;
49656;PMS5003;71194;38.900;-77.124;2023-07-20T13:13:23;33;30;
49656;PMS5003;71194;38.900;-77.124;2023-07-20T13:15:51;39;32;
49656;PMS5003;71194;38.900;-77.124;2023-07-20T13:18:18;36;30;
49656;PMS5003;71194;38.900;-77.124;2023-07-20T13:20:46;33;25;
49656;PMS5003;71194;38.900;-77.124;2023-07-20T13:23:13;33;28;
49656;PMS5003;71194;38.900;-77.124;2023-07-20T13:25:41;31;26;
49656;PMS5003;71194;38.900;-77.124;2023-07-20T13:28:08;31;23;
49656;PMS5003;71194;38.900;-77.124;2023-07-20T13:30:36;29;26;
49656;PMS5003;71194;38.900;-77.124;2023-07-20T13:33:04;33;26;
49656;PMS5003;71194;38.900;-77.124;2023-07-20T13:35:31;31;27;
49656;PMS5003;71194;38.900;-77.124;2023-07-20T13:37:59;33;27;
49656;PMS5003;71194;38.900;-77.124;2023-07-20T13:40:27;33;27;
49656;PMS5003;71194;38.900;-77.124;2023-07-20T13:42:55;27;22;
49656;PMS5003;71194;38.900;-77.124;2023-07-20T13:45:23;28;21;
49656;PMS5003;71194;38.900;-77.124;2023-07-20T13:47:50;29;26;
49656;PMS5003;71194;38.900;-77.124;2023-07-20T13:50:18;34;27;
49656;PMS5003;71194;38.900;-77.124;2023-07-20T13:52:46;40;37;
49656;PMS5003;71194;38.900;-77.124;2023-07-20T13:55:14;33;28;
49656;PMS5003;71194;38.900;-77.124;2023-07-20T13:57:42;32;27;
49656;PMS5003;71194;38.900;-77.124;2023-07-20T14:00:11;40;32;
49656;PMS5003;71194;38.900;-77.124;2023-07-20T14:02:39;31;26;
49656;PMS5003;71194;38.900;-77.124;2023-07-20T14:05:07;34;26;
49656;PMS5003;71194;38.900;-77.124;2023-07-20T14:07:36;31;28;
49656;PMS5003;71194;38.900;-77.124;2023-07-20T14:10:04;29;28;
49656;PMS5003;71194;38.900;-77.124;2023-07-20T14:12:33;44;38;
49656;PMS5003;71194;38.900;-77.124;2023-07-20T14:15:00;33;29;
49656;PMS5003;71194;38.900;-77.124;2023-07-20T14:17:28;29;28;
49656;PMS5003;71194;38.900;-77.124;2023-07-20T14:19:56;28;25;
49656;PMS5003;71194;38.900;-77.124;2023-07-20T14:22:23;27;26;
49656;PMS5003;71194;38.900;-77.124;2023-07-20T14:24:51;28;24;
49656;PMS5003;71194;38.900;-77.124;2023-07-20T14:27:18;34;26;
49656;PMS5003;71194;38.900;-77.124;2023-07-20T14:29:46;27;26;
49656;PMS5003;71194;38.900;-77.124;2023-07-20T14:32:14;31;27;
49656;PMS5003;71194;38.900;-77.124;2023-07-20T14:34:41;23;21;
49656;PMS5003;71194;38.900;-77.124;2023-07-20T14:37:09;24;22;
49656;PMS5003;71194;38.900;-77.124;2023-07-20T14:39:37;31;28;
49656;PMS5003;71194;38.900;-77.124;2023-07-20T14:42:05;44;34;
49656;PMS5003;71194;38.900;-77.124;2023-07-20T14:44:33;34;27;
49656;PMS5003;71194;38.900;-77.124;2023-07-20T14:47:01;35;28;
49656;PMS5003;71194;38.900;-77.124;2023-07-20T14:49:28;34;30;
49656;PMS5003;71194;38.900;-77.124;2023-07-20T14:51:56;40;33;
49656;PMS5003;71194;38.900;-77.124;2023-07-20T14:54:24;35;28;
49656;PMS5003;71194;38.900;-77.124;2023-07-20T14:56:52;33;27;
49656;PMS5003;71194;38.900;-77.124;2023-07-20T14:59:20;40;35;
49656;PMS5003;71194;38.900;-77.124;2023-07-20T15:01:47;35;30;
49656;PMS5003;71194;38.900;-77.124;2023-07-20T15:04:15;33;32;
49656;PMS5003;71194;38.900;-77.124;2023-07-20T15:06:43;39;32;
49656;PMS5003;71194;38.900;-77.124;2023-07-20T15:09:11;27;26;
49656;PMS5003;71194;38.900;-77.124;2023-07-20T15:11:39;33;27;
49656;PMS5003;71194;38.900;-77.124;2023-07-20T15:14:07;31;25;
49656;PMS5003;71194;38.900;-77.124;2023-07-20T15:16:34;31;30;
49656;PMS5003;71194;38.900;-77.124;2023-07-20T15:19:02;35;30;
49656;PMS5003;71194;38.900;-77.124;2023-07-20T15:21:30;42;35;
49656;PMS5003;71194;38.900;-77.124;2023-07-20T15:23:58;41;36;
49656;PMS5003;71194;38.900;-77.124;2023-07-20T15:26:26;30;28;
49656;PMS5003;71194;38.900;-77.124;2023-07-20T15:28:53;28;26;
49656;PMS5003;71194;38.900;-77.124;2023-07-20T15:31:21;39;31;
49656;PMS5003;71194;38.900;-77.124;2023-07-20T15:33:49;35;29;
49656;PMS5003;71194;38.900;-77.124;2023-07-20T15:36:17;35;25;
49656;PMS5003;71194;38.900;-77.124;2023-07-20T15:38:45;27;24;
49656;PMS5003;71194;38.900;-77.124;2023-07-20T15:41:13;26;24;
49656;PMS5003;71194;38.900;-77.124;2023-07-20T15:43:41;35;29;
49656;PMS5003;71194;38.900;-77.124;2023-07-20T15:47:13;39;36;
49656;PMS5003;71194;38.900;-77.124;2023-07-20T15:49:41;51;37;
49656;PMS5003;71194;38.900;-77.124;2023-07-20T15:52:09;29;28;
49656;PMS5003;71194;38.900;-77.124;2023-07-20T15:54:38;38;34;
49656;PMS5003;71194;38.900;-77.124;2023-07-20T15:57:07;34;32;